McEwensville, PA (17749)

5:01 PM EDT on August 18, 2019 (GMT -0400)
Country Hills Estates | | Change Station

Elev 515 ft 41.06 °N, 76.81 °W | Updated 1 minute ago

Thunderstorm
Thunderstorm
69.3 °F
Feels Like 69.3 °F
N
3.8
Wind Variable Wind from South
Gusts 4.5 mph

Today
High -- | Low -- °F
--% Chance of Precip.
Yesterday
High -- | Low -- °F
Precip. -- in
Pressure 29.97 in
Visibility 3.0 miles
Clouds Scattered Clouds 3200 ft
Overcast 9000 ft
Dew Point 64 °F
Humidity 83%
Rainfall 0.29 in
Snow Depth Not available.
6:19 AM 8:01 PM
Waning Gibbous, 90% visible
METAR KIPT 182054Z 08009KT 3SM TS HZ SCT032 OVC090 21/18 A2998 RMK AO2 WSHFT 2005 LTG DSNT NE-S RAB1955E52GRB04E12 TSB1955 SLP149 TS NE-S MOVG E P0075 60075 T02110183 50005
Pressure 29.97 in
Visibility 3.0 miles
Clouds Scattered Clouds 3200 ft
Overcast 9000 ft
Dew Point 64 °F
Humidity 83%
Rainfall 0.29 in
Snow Depth Not available.
6:19 AM 8:01 PM
Waning Gibbous, 90% visible
METAR KIPT 182054Z 08009KT 3SM TS HZ SCT032 OVC090 21/18 A2998 RMK AO2 WSHFT 2005 LTG DSNT NE-S RAB1955E52GRB04E12 TSB1955 SLP149 TS NE-S MOVG E P0075 60075 T02110183 50005

Get Severe Weather Alerts

Thanks for signing up!

Be on the lookout for a verification email in your inbox.

You'll start receiving the daily forecast at 6 AM.

×

10-Day Weather Forecast

Almanac

Astronomy

Aug. 18, 2019 Rise Set
Actual Time
Civil Twilight
Nautical Twilight
Astronomical Twilight
Moon
Length of Visible Light
Length of Day
Tomorrow will be .
, % of the Moon is Illuminated

Today's Extremes

State Highs State Lows

Community

WunderPhotos

Category 6

Welcome to Category 6. This is the collective home for Weather Underground's featured writeups by Dr. Jeff Masters (right), Bob Henson (left), Chris Burt, and other regular contributors.

Nearby

Air Quality

  Air Quality AQ Index Pollutant
Not available.

Snow Depth

Station Depth Elevation

Earthquake Activity

City Distance Mag. Time & Date
Minimum magnitude displayed is 2.5.

Coastal Water Temperatures

Place Temperature

Stations

Nearby Weather Stations

Station Location Temp. Windchill Dew Point Humidity Wind Precip. Elev Updated Type
                   

Watches & Warnings

There are currently no watches in effect.